sensor_id;sensor_type;location;lat;lon;timestamp;P1;durP1;ratioP1;P2;durP2;ratioP2
36547;SDS011;22551;52.206;4.856;2023-06-14T00:02:17;5.88;;;2.38;;
36547;SDS011;22551;52.206;4.856;2023-06-14T00:07:22;5.38;;;2.05;;
36547;SDS011;22551;52.206;4.856;2023-06-14T00:12:36;7.35;;;2.33;;
36547;SDS011;22551;52.206;4.856;2023-06-14T00:17:39;5.70;;;1.87;;
36547;SDS011;22551;52.206;4.856;2023-06-14T00:22:43;4.70;;;2.00;;
36547;SDS011;22551;52.206;4.856;2023-06-14T00:27:46;7.10;;;2.92;;
36547;SDS011;22551;52.206;4.856;2023-06-14T00:32:48;7.35;;;2.78;;
36547;SDS011;22551;52.206;4.856;2023-06-14T00:37:52;6.95;;;2.03;;
36547;SDS011;22551;52.206;4.856;2023-06-14T00:42:55;4.22;;;1.70;;
36547;SDS011;22551;52.206;4.856;2023-06-14T00:47:58;4.07;;;1.98;;
36547;SDS011;22551;52.206;4.856;2023-06-14T00:53:04;2.78;;;1.65;;
36547;SDS011;22551;52.206;4.856;2023-06-14T00:58:06;6.63;;;1.70;;
36547;SDS011;22551;52.206;4.856;2023-06-14T01:03:10;6.05;;;1.98;;
36547;SDS011;22551;52.206;4.856;2023-06-14T01:08:18;5.07;;;2.03;;
36547;SDS011;22551;52.206;4.856;2023-06-14T01:13:32;2.22;;;1.75;;
36547;SDS011;22551;52.206;4.856;2023-06-14T01:18:37;4.05;;;1.63;;
36547;SDS011;22551;52.206;4.856;2023-06-14T01:28:47;3.83;;;2.13;;
36547;SDS011;22551;52.206;4.856;2023-06-14T01:33:52;7.28;;;2.30;;
36547;SDS011;22551;52.206;4.856;2023-06-14T01:38:57;4.43;;;1.60;;
36547;SDS011;22551;52.206;4.856;2023-06-14T01:44:01;3.50;;;1.80;;
36547;SDS011;22551;52.206;4.856;2023-06-14T01:49:05;4.35;;;2.03;;
36547;SDS011;22551;52.206;4.856;2023-06-14T01:54:09;6.50;;;2.20;;
36547;SDS011;22551;52.206;4.856;2023-06-14T02:04:14;5.13;;;1.67;;
36547;SDS011;22551;52.206;4.856;2023-06-14T02:09:17;5.50;;;2.13;;
36547;SDS011;22551;52.206;4.856;2023-06-14T02:14:20;4.10;;;1.70;;
36547;SDS011;22551;52.206;4.856;2023-06-14T02:19:23;2.75;;;1.63;;
36547;SDS011;22551;52.206;4.856;2023-06-14T02:24:26;4.68;;;1.80;;
36547;SDS011;22551;52.206;4.856;2023-06-14T02:29:29;3.60;;;1.90;;
36547;SDS011;22551;52.206;4.856;2023-06-14T02:34:31;4.13;;;1.73;;
36547;SDS011;22551;52.206;4.856;2023-06-14T02:39:35;3.78;;;1.75;;
36547;SDS011;22551;52.206;4.856;2023-06-14T02:44:37;3.63;;;1.83;;
36547;SDS011;22551;52.206;4.856;2023-06-14T02:49:40;12.00;;;2.08;;
36547;SDS011;22551;52.206;4.856;2023-06-14T02:54:43;3.80;;;1.95;;
36547;SDS011;22551;52.206;4.856;2023-06-14T02:59:47;4.13;;;2.03;;
36547;SDS011;22551;52.206;4.856;2023-06-14T03:04:49;4.47;;;1.50;;
36547;SDS011;22551;52.206;4.856;2023-06-14T03:09:53;3.17;;;1.42;;
36547;SDS011;22551;52.206;4.856;2023-06-14T03:14:55;7.35;;;1.65;;
36547;SDS011;22551;52.206;4.856;2023-06-14T03:20:02;9.20;;;1.80;;
36547;SDS011;22551;52.206;4.856;2023-06-14T03:25:11;4.63;;;1.95;;
36547;SDS011;22551;52.206;4.856;2023-06-14T03:30:15;3.60;;;1.48;;
36547;SDS011;22551;52.206;4.856;2023-06-14T03:35:17;4.93;;;1.67;;
36547;SDS011;22551;52.206;4.856;2023-06-14T03:40:21;3.67;;;1.50;;
36547;SDS011;22551;52.206;4.856;2023-06-14T03:45:27;3.47;;;1.42;;
36547;SDS011;22551;52.206;4.856;2023-06-14T03:50:29;5.28;;;1.88;;
36547;SDS011;22551;52.206;4.856;2023-06-14T03:55:33;5.78;;;1.60;;
36547;SDS011;22551;52.206;4.856;2023-06-14T04:00:36;5.77;;;2.10;;
36547;SDS011;22551;52.206;4.856;2023-06-14T04:05:38;3.78;;;1.85;;
36547;SDS011;22551;52.206;4.856;2023-06-14T04:10:43;4.27;;;1.80;;
36547;SDS011;22551;52.206;4.856;2023-06-14T04:15:45;5.18;;;2.30;;
36547;SDS011;22551;52.206;4.856;2023-06-14T04:20:47;2.95;;;1.70;;
36547;SDS011;22551;52.206;4.856;2023-06-14T04:25:51;4.38;;;1.92;;
36547;SDS011;22551;52.206;4.856;2023-06-14T04:30:53;7.47;;;1.70;;
36547;SDS011;22551;52.206;4.856;2023-06-14T04:35:55;5.85;;;1.70;;
36547;SDS011;22551;52.206;4.856;2023-06-14T04:40:59;3.95;;;1.77;;
36547;SDS011;22551;52.206;4.856;2023-06-14T04:46:01;5.75;;;2.25;;
36547;SDS011;22551;52.206;4.856;2023-06-14T04:51:06;5.68;;;2.03;;
36547;SDS011;22551;52.206;4.856;2023-06-14T04:56:09;4.93;;;1.73;;
36547;SDS011;22551;52.206;4.856;2023-06-14T05:01:11;3.88;;;2.20;;
36547;SDS011;22551;52.206;4.856;2023-06-14T05:06:14;6.38;;;1.90;;
36547;SDS011;22551;52.206;4.856;2023-06-14T05:11:18;7.53;;;1.83;;
36547;SDS011;22551;52.206;4.856;2023-06-14T05:16:21;2.22;;;1.48;;
36547;SDS011;22551;52.206;4.856;2023-06-14T05:21:25;5.03;;;2.00;;
36547;SDS011;22551;52.206;4.856;2023-06-14T05:26:29;8.20;;;1.80;;
36547;SDS011;22551;52.206;4.856;2023-06-14T05:31:31;4.03;;;1.40;;
36547;SDS011;22551;52.206;4.856;2023-06-14T05:36:33;6.95;;;1.48;;
36547;SDS011;22551;52.206;4.856;2023-06-14T05:41:38;12.20;;;2.10;;
36547;SDS011;22551;52.206;4.856;2023-06-14T05:46:40;4.53;;;1.75;;
36547;SDS011;22551;52.206;4.856;2023-06-14T05:51:42;4.25;;;1.58;;
36547;SDS011;22551;52.206;4.856;2023-06-14T05:56:46;3.42;;;2.03;;
36547;SDS011;22551;52.206;4.856;2023-06-14T06:01:48;7.27;;;1.43;;
36547;SDS011;22551;52.206;4.856;2023-06-14T06:06:50;7.20;;;1.52;;
36547;SDS011;22551;52.206;4.856;2023-06-14T06:11:53;7.47;;;1.70;;
36547;SDS011;22551;52.206;4.856;2023-06-14T06:16:55;4.47;;;1.90;;
36547;SDS011;22551;52.206;4.856;2023-06-14T06:21:57;8.48;;;2.30;;
36547;SDS011;22551;52.206;4.856;2023-06-14T06:27:01;2.97;;;1.88;;
36547;SDS011;22551;52.206;4.856;2023-06-14T06:32:03;2.60;;;1.58;;
36547;SDS011;22551;52.206;4.856;2023-06-14T06:37:07;4.93;;;1.67;;
36547;SDS011;22551;52.206;4.856;2023-06-14T06:42:11;3.78;;;1.50;;
36547;SDS011;22551;52.206;4.856;2023-06-14T06:47:13;5.18;;;2.00;;
36547;SDS011;22551;52.206;4.856;2023-06-14T06:52:16;3.13;;;1.90;;
36547;SDS011;22551;52.206;4.856;2023-06-14T06:57:19;3.13;;;2.03;;
36547;SDS011;22551;52.206;4.856;2023-06-14T07:02:22;6.70;;;1.77;;
36547;SDS011;22551;52.206;4.856;2023-06-14T07:07:24;5.03;;;2.35;;
36547;SDS011;22551;52.206;4.856;2023-06-14T07:12:28;4.90;;;1.60;;
36547;SDS011;22551;52.206;4.856;2023-06-14T07:17:31;16.63;;;2.28;;
36547;SDS011;22551;52.206;4.856;2023-06-14T07:22:34;3.60;;;2.05;;
36547;SDS011;22551;52.206;4.856;2023-06-14T07:27:37;4.28;;;2.05;;
36547;SDS011;22551;52.206;4.856;2023-06-14T07:32:40;5.38;;;1.95;;
36547;SDS011;22551;52.206;4.856;2023-06-14T07:37:43;8.52;;;1.75;;
36547;SDS011;22551;52.206;4.856;2023-06-14T07:42:48;3.33;;;2.17;;
36547;SDS011;22551;52.206;4.856;2023-06-14T07:47:51;5.20;;;1.92;;
36547;SDS011;22551;52.206;4.856;2023-06-14T07:52:53;4.03;;;1.77;;
36547;SDS011;22551;52.206;4.856;2023-06-14T07:57:56;4.25;;;2.00;;
36547;SDS011;22551;52.206;4.856;2023-06-14T08:08:00;4.05;;;1.83;;
36547;SDS011;22551;52.206;4.856;2023-06-14T08:13:04;8.05;;;1.98;;
36547;SDS011;22551;52.206;4.856;2023-06-14T08:18:06;5.25;;;1.80;;
36547;SDS011;22551;52.206;4.856;2023-06-14T08:23:08;2.00;;;1.80;;
36547;SDS011;22551;52.206;4.856;2023-06-14T08:33:14;5.20;;;1.98;;
36547;SDS011;22551;52.206;4.856;2023-06-14T08:38:17;3.97;;;2.07;;
36547;SDS011;22551;52.206;4.856;2023-06-14T08:43:20;2.67;;;1.80;;
36547;SDS011;22551;52.206;4.856;2023-06-14T08:48:22;6.32;;;1.58;;
36547;SDS011;22551;52.206;4.856;2023-06-14T08:53:27;3.30;;;1.70;;
36547;SDS011;22551;52.206;4.856;2023-06-14T08:58:33;5.22;;;1.50;;
36547;SDS011;22551;52.206;4.856;2023-06-14T09:03:36;5.13;;;1.63;;
36547;SDS011;22551;52.206;4.856;2023-06-14T09:08:41;4.50;;;1.38;;
36547;SDS011;22551;52.206;4.856;2023-06-14T09:13:46;5.10;;;1.50;;
36547;SDS011;22551;52.206;4.856;2023-06-14T09:18:49;3.50;;;1.17;;
36547;SDS011;22551;52.206;4.856;2023-06-14T09:23:51;4.97;;;1.25;;
36547;SDS011;22551;52.206;4.856;2023-06-14T09:28:55;6.63;;;1.57;;
36547;SDS011;22551;52.206;4.856;2023-06-14T09:33:57;3.13;;;1.20;;
36547;SDS011;22551;52.206;4.856;2023-06-14T09:39:03;2.30;;;1.40;;
36547;SDS011;22551;52.206;4.856;2023-06-14T09:44:08;2.95;;;1.38;;
36547;SDS011;22551;52.206;4.856;2023-06-14T09:49:12;1.63;;;0.90;;
36547;SDS011;22551;52.206;4.856;2023-06-14T09:54:15;8.05;;;1.27;;
36547;SDS011;22551;52.206;4.856;2023-06-14T09:59:26;4.55;;;1.17;;
36547;SDS011;22551;52.206;4.856;2023-06-14T10:04:32;1.85;;;1.17;;
36547;SDS011;22551;52.206;4.856;2023-06-14T10:09:36;2.33;;;0.80;;
36547;SDS011;22551;52.206;4.856;2023-06-14T10:14:41;4.25;;;1.00;;
36547;SDS011;22551;52.206;4.856;2023-06-14T10:19:44;1.05;;;1.00;;
36547;SDS011;22551;52.206;4.856;2023-06-14T10:24:53;2.42;;;1.17;;
36547;SDS011;22551;52.206;4.856;2023-06-14T10:30:03;2.10;;;0.90;;
36547;SDS011;22551;52.206;4.856;2023-06-14T10:35:09;1.55;;;0.90;;
36547;SDS011;22551;52.206;4.856;2023-06-14T10:40:29;1.55;;;1.25;;
36547;SDS011;22551;52.206;4.856;2023-06-14T10:45:33;1.83;;;1.20;;
36547;SDS011;22551;52.206;4.856;2023-06-14T10:50:35;4.28;;;1.00;;
36547;SDS011;22551;52.206;4.856;2023-06-14T10:55:38;5.28;;;1.00;;
36547;SDS011;22551;52.206;4.856;2023-06-14T11:00:41;0.77;;;0.75;;
36547;SDS011;22551;52.206;4.856;2023-06-14T11:05:48;2.08;;;0.70;;
36547;SDS011;22551;52.206;4.856;2023-06-14T11:10:52;1.63;;;0.98;;
36547;SDS011;22551;52.206;4.856;2023-06-14T11:16:01;1.95;;;1.10;;
36547;SDS011;22551;52.206;4.856;2023-06-14T11:21:04;2.35;;;1.10;;
36547;SDS011;22551;52.206;4.856;2023-06-14T11:26:07;1.45;;;0.90;;
36547;SDS011;22551;52.206;4.856;2023-06-14T11:31:10;4.93;;;1.00;;
36547;SDS011;22551;52.206;4.856;2023-06-14T11:36:13;2.47;;;0.68;;
36547;SDS011;22551;52.206;4.856;2023-06-14T11:41:15;1.73;;;1.00;;
36547;SDS011;22551;52.206;4.856;2023-06-14T11:46:19;1.45;;;0.90;;
36547;SDS011;22551;52.206;4.856;2023-06-14T11:51:24;2.15;;;0.90;;
36547;SDS011;22551;52.206;4.856;2023-06-14T11:56:26;2.30;;;1.20;;
36547;SDS011;22551;52.206;4.856;2023-06-14T12:01:31;1.58;;;0.88;;
36547;SDS011;22551;52.206;4.856;2023-06-14T12:06:33;2.80;;;1.27;;
36547;SDS011;22551;52.206;4.856;2023-06-14T12:11:36;1.20;;;0.90;;
36547;SDS011;22551;52.206;4.856;2023-06-14T12:16:40;4.10;;;1.10;;
36547;SDS011;22551;52.206;4.856;2023-06-14T12:21:42;1.08;;;0.95;;
36547;SDS011;22551;52.206;4.856;2023-06-14T12:26:51;5.68;;;0.98;;
36547;SDS011;22551;52.206;4.856;2023-06-14T12:31:55;0.80;;;0.80;;
36547;SDS011;22551;52.206;4.856;2023-06-14T12:36:58;2.75;;;0.90;;
36547;SDS011;22551;52.206;4.856;2023-06-14T12:42:01;1.10;;;0.93;;
36547;SDS011;22551;52.206;4.856;2023-06-14T12:47:06;8.38;;;1.10;;
36547;SDS011;22551;52.206;4.856;2023-06-14T12:52:09;2.20;;;1.08;;
36547;SDS011;22551;52.206;4.856;2023-06-14T13:02:16;2.00;;;1.10;;
36547;SDS011;22551;52.206;4.856;2023-06-14T13:07:22;2.08;;;0.93;;
36547;SDS011;22551;52.206;4.856;2023-06-14T13:12:24;2.92;;;0.85;;
36547;SDS011;22551;52.206;4.856;2023-06-14T13:17:28;3.80;;;0.83;;
36547;SDS011;22551;52.206;4.856;2023-06-14T13:22:32;2.60;;;0.80;;
36547;SDS011;22551;52.206;4.856;2023-06-14T13:27:34;0.97;;;0.90;;
36547;SDS011;22551;52.206;4.856;2023-06-14T13:32:38;10.37;;;1.20;;
36547;SDS011;22551;52.206;4.856;2023-06-14T13:37:40;1.85;;;1.05;;
36547;SDS011;22551;52.206;4.856;2023-06-14T13:42:42;1.85;;;1.20;;
36547;SDS011;22551;52.206;4.856;2023-06-14T13:47:46;1.93;;;0.70;;
36547;SDS011;22551;52.206;4.856;2023-06-14T13:52:49;2.55;;;1.00;;
36547;SDS011;22551;52.206;4.856;2023-06-14T13:57:51;2.30;;;0.60;;
36547;SDS011;22551;52.206;4.856;2023-06-14T14:02:55;3.17;;;0.93;;
36547;SDS011;22551;52.206;4.856;2023-06-14T14:07:59;4.18;;;1.20;;
36547;SDS011;22551;52.206;4.856;2023-06-14T14:13:02;5.17;;;0.93;;
36547;SDS011;22551;52.206;4.856;2023-06-14T14:18:06;1.13;;;0.77;;
36547;SDS011;22551;52.206;4.856;2023-06-14T14:23:08;4.72;;;1.00;;
36547;SDS011;22551;52.206;4.856;2023-06-14T14:28:10;2.57;;;0.70;;
36547;SDS011;22551;52.206;4.856;2023-06-14T14:33:17;3.97;;;0.95;;
36547;SDS011;22551;52.206;4.856;2023-06-14T14:38:19;3.63;;;1.20;;
36547;SDS011;22551;52.206;4.856;2023-06-14T14:43:21;3.20;;;0.97;;
36547;SDS011;22551;52.206;4.856;2023-06-14T14:48:25;5.45;;;0.98;;
36547;SDS011;22551;52.206;4.856;2023-06-14T14:53:27;0.68;;;0.65;;
36547;SDS011;22551;52.206;4.856;2023-06-14T14:58:30;1.37;;;1.13;;
36547;SDS011;22551;52.206;4.856;2023-06-14T15:03:34;2.60;;;0.60;;
36547;SDS011;22551;52.206;4.856;2023-06-14T15:08:36;2.85;;;0.75;;
36547;SDS011;22551;52.206;4.856;2023-06-14T15:13:38;3.53;;;0.90;;
36547;SDS011;22551;52.206;4.856;2023-06-14T15:18:42;2.63;;;1.00;;
36547;SDS011;22551;52.206;4.856;2023-06-14T15:23:45;2.17;;;0.60;;
36547;SDS011;22551;52.206;4.856;2023-06-14T15:28:47;0.77;;;0.68;;
36547;SDS011;22551;52.206;4.856;2023-06-14T15:33:51;2.10;;;1.17;;
36547;SDS011;22551;52.206;4.856;2023-06-14T15:38:53;1.52;;;0.60;;
36547;SDS011;22551;52.206;4.856;2023-06-14T15:43:55;4.40;;;1.13;;
36547;SDS011;22551;52.206;4.856;2023-06-14T15:48:59;3.80;;;0.80;;
36547;SDS011;22551;52.206;4.856;2023-06-14T15:54:02;3.60;;;1.15;;
36547;SDS011;22551;52.206;4.856;2023-06-14T16:37:16;1.05;;;0.70;;
36547;SDS011;22551;52.206;4.856;2023-06-14T16:42:18;1.35;;;0.80;;
36547;SDS011;22551;52.206;4.856;2023-06-14T16:47:21;2.05;;;1.27;;
36547;SDS011;22551;52.206;4.856;2023-06-14T16:52:25;1.00;;;0.70;;
36547;SDS011;22551;52.206;4.856;2023-06-14T16:57:27;0.80;;;0.60;;
36547;SDS011;22551;52.206;4.856;2023-06-14T17:02:29;1.45;;;0.95;;
36547;SDS011;22551;52.206;4.856;2023-06-14T17:07:32;2.13;;;0.80;;
36547;SDS011;22551;52.206;4.856;2023-06-14T17:12:34;4.57;;;0.77;;
36547;SDS011;22551;52.206;4.856;2023-06-14T17:17:37;0.75;;;0.55;;
36547;SDS011;22551;52.206;4.856;2023-06-14T17:22:41;2.08;;;0.93;;
36547;SDS011;22551;52.206;4.856;2023-06-14T17:27:43;0.85;;;0.70;;
36547;SDS011;22551;52.206;4.856;2023-06-14T17:32:45;1.08;;;0.60;;
36547;SDS011;22551;52.206;4.856;2023-06-14T17:37:49;1.73;;;0.73;;
36547;SDS011;22551;52.206;4.856;2023-06-14T17:42:51;0.70;;;0.57;;
36547;SDS011;22551;52.206;4.856;2023-06-14T17:47:53;1.20;;;0.80;;
36547;SDS011;22551;52.206;4.856;2023-06-14T17:52:56;2.40;;;0.75;;
36547;SDS011;22551;52.206;4.856;2023-06-14T17:58:01;1.58;;;0.68;;
36547;SDS011;22551;52.206;4.856;2023-06-14T18:08:07;7.15;;;1.08;;
36547;SDS011;22551;52.206;4.856;2023-06-14T18:13:10;6.70;;;1.30;;
36547;SDS011;22551;52.206;4.856;2023-06-14T18:18:12;1.98;;;1.10;;
36547;SDS011;22551;52.206;4.856;2023-06-14T18:23:16;3.05;;;0.82;;
36547;SDS011;22551;52.206;4.856;2023-06-14T18:33:20;1.15;;;0.70;;
36547;SDS011;22551;52.206;4.856;2023-06-14T18:38:23;2.03;;;1.00;;
36547;SDS011;22551;52.206;4.856;2023-06-14T18:43:26;2.47;;;0.80;;
36547;SDS011;22551;52.206;4.856;2023-06-14T18:48:33;1.65;;;0.85;;
36547;SDS011;22551;52.206;4.856;2023-06-14T18:53:36;1.10;;;0.93;;
36547;SDS011;22551;52.206;4.856;2023-06-14T18:58:39;1.05;;;0.73;;
36547;SDS011;22551;52.206;4.856;2023-06-14T19:03:44;3.55;;;0.70;;
36547;SDS011;22551;52.206;4.856;2023-06-14T19:08:48;1.55;;;0.57;;
36547;SDS011;22551;52.206;4.856;2023-06-14T19:13:50;2.30;;;0.90;;
36547;SDS011;22551;52.206;4.856;2023-06-14T19:18:52;3.22;;;0.90;;
36547;SDS011;22551;52.206;4.856;2023-06-14T19:23:56;1.48;;;0.82;;
36547;SDS011;22551;52.206;4.856;2023-06-14T19:28:58;1.95;;;0.95;;
36547;SDS011;22551;52.206;4.856;2023-06-14T19:34:00;1.00;;;0.73;;
36547;SDS011;22551;52.206;4.856;2023-06-14T19:39:04;1.85;;;1.02;;
36547;SDS011;22551;52.206;4.856;2023-06-14T19:44:06;1.42;;;0.80;;
36547;SDS011;22551;52.206;4.856;2023-06-14T19:49:08;1.35;;;0.90;;
36547;SDS011;22551;52.206;4.856;2023-06-14T19:54:11;1.73;;;0.90;;
36547;SDS011;22551;52.206;4.856;2023-06-14T19:59:13;0.93;;;0.90;;
36547;SDS011;22551;52.206;4.856;2023-06-14T20:04:16;5.40;;;0.80;;
36547;SDS011;22551;52.206;4.856;2023-06-14T20:09:19;2.83;;;0.88;;
36547;SDS011;22551;52.206;4.856;2023-06-14T20:14:21;1.33;;;0.73;;
36547;SDS011;22551;52.206;4.856;2023-06-14T20:19:23;5.72;;;0.77;;
36547;SDS011;22551;52.206;4.856;2023-06-14T20:24:27;2.17;;;0.90;;
36547;SDS011;22551;52.206;4.856;2023-06-14T20:29:29;3.95;;;1.30;;
36547;SDS011;22551;52.206;4.856;2023-06-14T20:34:31;5.13;;;1.50;;
36547;SDS011;22551;52.206;4.856;2023-06-14T20:39:35;2.47;;;1.20;;
36547;SDS011;22551;52.206;4.856;2023-06-14T20:44:37;0.90;;;0.88;;
36547;SDS011;22551;52.206;4.856;2023-06-14T20:54:58;4.82;;;0.98;;
36547;SDS011;22551;52.206;4.856;2023-06-14T21:00:01;1.40;;;0.80;;
36547;SDS011;22551;52.206;4.856;2023-06-14T21:05:10;1.75;;;0.80;;
36547;SDS011;22551;52.206;4.856;2023-06-14T21:10:14;2.30;;;0.77;;
36547;SDS011;22551;52.206;4.856;2023-06-14T21:15:16;1.00;;;0.95;;
36547;SDS011;22551;52.206;4.856;2023-06-14T21:20:18;1.75;;;0.75;;
36547;SDS011;22551;52.206;4.856;2023-06-14T21:25:22;2.13;;;0.77;;
36547;SDS011;22551;52.206;4.856;2023-06-14T21:30:30;4.70;;;1.00;;
36547;SDS011;22551;52.206;4.856;2023-06-14T21:35:34;2.05;;;0.90;;
36547;SDS011;22551;52.206;4.856;2023-06-14T21:40:38;6.88;;;1.27;;
36547;SDS011;22551;52.206;4.856;2023-06-14T21:45:42;2.80;;;1.25;;
36547;SDS011;22551;52.206;4.856;2023-06-14T21:50:45;4.03;;;1.75;;
36547;SDS011;22551;52.206;4.856;2023-06-14T21:55:48;8.35;;;1.42;;
36547;SDS011;22551;52.206;4.856;2023-06-14T22:00:51;1.52;;;0.93;;
36547;SDS011;22551;52.206;4.856;2023-06-14T22:05:53;5.05;;;0.90;;
36547;SDS011;22551;52.206;4.856;2023-06-14T22:10:57;1.65;;;1.10;;
36547;SDS011;22551;52.206;4.856;2023-06-14T22:16:01;2.10;;;1.27;;
36547;SDS011;22551;52.206;4.856;2023-06-14T22:21:03;5.18;;;1.20;;
36547;SDS011;22551;52.206;4.856;2023-06-14T22:26:08;1.30;;;0.90;;
36547;SDS011;22551;52.206;4.856;2023-06-14T22:31:10;0.93;;;0.88;;
36547;SDS011;22551;52.206;4.856;2023-06-14T22:36:14;2.13;;;1.30;;
36547;SDS011;22551;52.206;4.856;2023-06-14T22:41:18;3.50;;;1.48;;
36547;SDS011;22551;52.206;4.856;2023-06-14T22:46:20;1.40;;;1.20;;
36547;SDS011;22551;52.206;4.856;2023-06-14T22:51:24;1.98;;;1.25;;
36547;SDS011;22551;52.206;4.856;2023-06-14T22:56:28;5.38;;;1.33;;
36547;SDS011;22551;52.206;4.856;2023-06-14T23:06:33;2.67;;;1.55;;
36547;SDS011;22551;52.206;4.856;2023-06-14T23:11:38;5.25;;;1.55;;
36547;SDS011;22551;52.206;4.856;2023-06-14T23:16:43;3.13;;;1.58;;
36547;SDS011;22551;52.206;4.856;2023-06-14T23:21:47;5.07;;;2.13;;
36547;SDS011;22551;52.206;4.856;2023-06-14T23:26:51;3.53;;;1.63;;
36547;SDS011;22551;52.206;4.856;2023-06-14T23:31:58;4.55;;;2.22;;
36547;SDS011;22551;52.206;4.856;2023-06-14T23:37:01;3.00;;;1.70;;
36547;SDS011;22551;52.206;4.856;2023-06-14T23:42:05;2.58;;;1.77;;
36547;SDS011;22551;52.206;4.856;2023-06-14T23:47:10;2.75;;;1.77;;
36547;SDS011;22551;52.206;4.856;2023-06-14T23:52:14;2.45;;;2.13;;
36547;SDS011;22551;52.206;4.856;2023-06-14T23:57:19;4.05;;;1.92;;
